createdAt,value
2018-05-26T00:01:09.036Z,15.90
2018-05-26T00:03:37.429Z,15.70
2018-05-26T00:06:05.022Z,15.70
2018-05-26T00:08:32.652Z,15.30
2018-05-26T00:11:00.276Z,15.30
2018-05-26T00:13:27.907Z,15.20
2018-05-26T00:15:55.490Z,15.20
2018-05-26T00:18:23.121Z,15.20
2018-05-26T00:20:50.749Z,15.10
2018-05-26T00:23:19.101Z,15.20
2018-05-26T00:25:46.724Z,15.20
2018-05-26T00:28:14.313Z,15.30
2018-05-26T00:30:41.935Z,15.30
2018-05-26T00:33:09.565Z,15.40
2018-05-26T00:35:37.960Z,15.60
2018-05-26T00:38:05.544Z,15.50
2018-05-26T00:40:33.169Z,15.50
2018-05-26T00:43:01.565Z,15.30
2018-05-26T00:45:29.204Z,15.30
2018-05-26T00:47:57.553Z,15.40
2018-05-26T00:50:25.180Z,15.40
2018-05-26T00:52:52.760Z,15.40
2018-05-26T00:55:20.386Z,15.40
2018-05-26T00:57:48.023Z,15.40
2018-05-26T01:00:16.373Z,15.40
2018-05-26T01:02:43.994Z,15.40
2018-05-26T01:05:11.576Z,15.40
2018-05-26T01:07:39.200Z,15.40
2018-05-26T01:10:06.786Z,15.30
2018-05-26T01:12:34.369Z,15.30
2018-05-26T01:15:02.006Z,15.20
2018-05-26T01:17:29.602Z,15.30
2018-05-26T01:19:57.234Z,15.30
2018-05-26T01:22:24.863Z,15.30
2018-05-26T01:24:52.446Z,15.30
2018-05-26T01:27:20.069Z,15.30
2018-05-26T01:29:48.468Z,15.10
2018-05-26T01:32:16.053Z,15.10
2018-05-26T01:34:43.676Z,15.00
2018-05-26T01:37:11.261Z,15.00
2018-05-26T01:39:38.848Z,15.00
2018-05-26T01:42:06.472Z,15.00
2018-05-26T01:44:34.057Z,15.00
2018-05-26T01:47:01.637Z,15.00
2018-05-26T01:49:29.253Z,15.10
2018-05-26T01:51:56.836Z,15.10
2018-05-26T01:54:24.473Z,15.10
2018-05-26T01:56:52.057Z,15.00
2018-05-26T01:59:19.716Z,14.90
2018-05-26T02:01:47.341Z,14.80
2018-05-26T02:04:14.929Z,14.90
2018-05-26T02:06:42.551Z,14.90
2018-05-26T02:09:10.932Z,14.90
2018-05-26T02:11:39.284Z,14.90
2018-05-26T02:14:06.935Z,14.90
2018-05-26T02:16:34.523Z,14.90
2018-05-26T02:19:02.951Z,15.00
2018-05-26T02:21:31.349Z,15.10
2018-05-26T02:23:58.928Z,15.10
2018-05-26T02:26:26.556Z,15.10
2018-05-26T02:28:54.173Z,15.20
2018-05-26T02:31:22.566Z,15.10
2018-05-26T02:33:50.167Z,15.00
2018-05-26T02:36:17.752Z,15.00
2018-05-26T02:38:45.377Z,15.00
2018-05-26T02:41:12.972Z,15.10
2018-05-26T02:43:40.597Z,15.10
2018-05-26T02:46:08.221Z,15.10
2018-05-26T02:48:36.605Z,15.00
2018-05-26T02:51:04.233Z,15.00
2018-05-26T02:53:31.817Z,15.00
2018-05-26T02:56:00.212Z,14.90
2018-05-26T02:58:27.800Z,14.90
2018-05-26T03:00:55.425Z,14.90
2018-05-26T03:03:23.055Z,14.80
2018-05-26T03:05:56.359Z,14.70
2018-05-26T03:08:29.727Z,14.70
2018-05-26T03:11:02.944Z,14.70
2018-05-26T03:13:37.037Z,14.70
2018-05-26T03:16:08.480Z,14.70
2018-05-26T03:18:36.068Z,14.70
2018-05-26T03:21:04.464Z,14.70
2018-05-26T03:23:32.809Z,14.60
2018-05-26T03:26:00.433Z,14.60
2018-05-26T03:28:28.055Z,14.50
2018-05-26T03:30:56.400Z,14.50
2018-05-26T03:33:24.040Z,14.40
2018-05-26T03:35:51.640Z,14.50
2018-05-26T03:38:19.225Z,14.50
2018-05-26T03:40:46.844Z,14.50
2018-05-26T03:43:14.460Z,14.40
2018-05-26T03:45:42.080Z,14.40
2018-05-26T03:48:09.665Z,14.40
2018-05-26T03:50:38.051Z,14.40
2018-05-26T03:53:05.635Z,14.40
2018-05-26T03:55:45.002Z,14.40
2018-05-26T03:58:24.348Z,14.40
2018-05-26T04:00:51.972Z,14.40
2018-05-26T04:03:19.564Z,14.50
2018-05-26T04:05:47.256Z,14.50
2018-05-26T04:08:14.841Z,14.50
2018-05-26T04:10:42.428Z,14.40
2018-05-26T04:13:10.056Z,14.40
2018-05-26T04:15:37.668Z,14.40
2018-05-26T04:18:06.055Z,14.30
2018-05-26T04:20:33.778Z,14.30
2018-05-26T04:23:01.401Z,14.30
2018-05-26T04:25:29.752Z,14.30
2018-05-26T04:27:58.164Z,14.40
2018-05-26T04:30:25.751Z,14.40
2018-05-26T04:32:53.332Z,14.40
2018-05-26T04:35:20.961Z,14.50
2018-05-26T04:37:48.570Z,14.50
2018-05-26T04:40:16.193Z,14.50
2018-05-26T04:42:43.781Z,14.60
2018-05-26T04:45:11.405Z,14.60
2018-05-26T04:47:39.037Z,14.60
2018-05-26T04:50:07.392Z,14.60
2018-05-26T04:52:36.524Z,14.60
2018-05-26T04:55:04.153Z,14.60
2018-05-26T04:57:33.276Z,14.70
2018-05-26T05:00:01.621Z,14.70
2018-05-26T05:02:30.020Z,14.70
2018-05-26T05:04:58.368Z,14.80
2018-05-26T05:07:25.984Z,14.80
2018-05-26T05:09:53.566Z,14.80
2018-05-26T05:12:21.192Z,14.80
2018-05-26T05:14:49.556Z,14.90
2018-05-26T05:17:17.948Z,15.00
2018-05-26T05:19:46.300Z,15.00
2018-05-26T05:22:13.924Z,15.00
2018-05-26T05:24:41.508Z,15.00
2018-05-26T05:27:09.147Z,15.10
2018-05-26T05:29:36.736Z,15.10
2018-05-26T05:32:05.904Z,15.10
2018-05-26T05:34:33.494Z,15.10
2018-05-26T05:37:02.641Z,15.20
2018-05-26T05:39:30.225Z,15.20
2018-05-26T05:41:57.812Z,15.20
2018-05-26T05:44:26.204Z,15.30
2018-05-26T05:46:53.832Z,15.30
2018-05-26T05:49:21.464Z,15.40
2018-05-26T05:51:49.093Z,15.50
2018-05-26T05:54:17.441Z,15.60
2018-05-26T05:56:45.068Z,15.50
2018-05-26T05:59:12.652Z,15.60
2018-05-26T06:01:40.281Z,15.60
2018-05-26T06:04:07.865Z,15.70
2018-05-26T06:06:35.500Z,15.70
2018-05-26T06:09:03.136Z,15.80
2018-05-26T06:11:31.524Z,15.80
2018-05-26T06:13:59.917Z,15.90
2018-05-26T06:16:27.544Z,15.90
2018-05-26T06:18:55.176Z,15.90
2018-05-26T06:21:22.789Z,16.00
2018-05-26T06:23:51.138Z,16.20
2018-05-26T06:26:18.849Z,16.20
2018-05-26T06:28:46.444Z,16.20
2018-05-26T06:31:14.061Z,16.30
2018-05-26T06:33:41.651Z,16.40
2018-05-26T06:36:09.277Z,16.40
2018-05-26T06:38:36.864Z,16.50
2018-05-26T06:41:04.492Z,16.50
2018-05-26T06:43:32.888Z,16.70
2018-05-26T06:46:00.513Z,16.60
2018-05-26T06:48:28.100Z,16.80
2018-05-26T06:50:55.731Z,16.90
2018-05-26T06:53:23.315Z,16.90
2018-05-26T06:55:50.933Z,16.90
2018-05-26T06:58:18.548Z,16.90
2018-05-26T07:00:46.178Z,17.00
2018-05-26T07:03:14.528Z,17.20
2018-05-26T07:05:42.148Z,17.20
2018-05-26T07:08:09.764Z,17.30
2018-05-26T07:10:37.390Z,17.40
2018-05-26T07:13:05.013Z,17.40
2018-05-26T07:15:33.364Z,17.50
2018-05-26T07:18:01.001Z,17.50
2018-05-26T07:20:28.643Z,17.60
2018-05-26T07:22:56.265Z,17.60
2018-05-26T07:25:24.655Z,17.80
2018-05-26T07:27:53.043Z,17.80
2018-05-26T07:30:21.428Z,17.90
2018-05-26T07:32:49.140Z,17.80
2018-05-26T07:35:16.728Z,17.90
2018-05-26T07:37:45.116Z,18.20
2018-05-26T07:40:13.464Z,18.20
2018-05-26T07:42:41.101Z,18.20
2018-05-26T07:45:08.688Z,18.30
2018-05-26T07:47:36.276Z,18.30
2018-05-26T07:50:04.699Z,18.50
2018-05-26T07:52:32.357Z,18.50
2018-05-26T07:54:59.945Z,18.70
2018-05-26T07:57:27.536Z,18.80
2018-05-26T07:59:55.932Z,18.90
2018-05-26T08:02:23.556Z,18.90
2018-05-26T08:04:51.173Z,19.00
2018-05-26T08:07:18.794Z,19.10
2018-05-26T08:09:47.144Z,19.10
2018-05-26T08:12:14.779Z,19.10
2018-05-26T08:14:42.364Z,19.10
2018-05-26T08:17:10.059Z,19.20
2018-05-26T08:19:37.612Z,19.30
2018-05-26T08:22:06.005Z,19.50
2018-05-26T08:24:33.638Z,19.40
2018-05-26T08:27:02.071Z,19.60
2018-05-26T08:29:29.709Z,19.60
2018-05-26T08:31:57.313Z,19.80
2018-05-26T08:34:25.041Z,20.10
2018-05-26T08:36:52.665Z,20.20
2018-05-26T08:39:20.316Z,20.20
2018-05-26T08:41:48.047Z,20.20
2018-05-26T08:44:15.658Z,20.40
2018-05-26T08:46:44.061Z,20.70
2018-05-26T08:49:11.660Z,20.70
2018-05-26T08:51:39.328Z,20.90
2018-05-26T08:54:07.029Z,21.00
2018-05-26T08:56:35.428Z,21.10
2018-05-26T08:59:03.016Z,21.10
2018-05-26T09:01:30.657Z,21.30
2018-05-26T09:03:58.243Z,21.40
2018-05-26T09:06:25.879Z,21.40
2018-05-26T09:08:54.250Z,21.60
2018-05-26T09:11:21.856Z,21.60
2018-05-26T09:13:49.513Z,21.60
2018-05-26T09:16:17.132Z,21.70
2018-05-26T09:18:44.789Z,21.80
2018-05-26T09:21:13.165Z,22.10
2018-05-26T09:23:40.792Z,22.10
2018-05-26T09:26:08.423Z,22.40
2018-05-26T09:28:36.052Z,22.40
2018-05-26T09:31:03.638Z,22.50
2018-05-26T09:33:31.261Z,22.60
2018-05-26T09:35:59.630Z,22.80
2018-05-26T09:38:28.028Z,22.80
2018-05-26T09:40:55.658Z,22.80
2018-05-26T09:43:23.281Z,22.90
2018-05-26T09:45:50.925Z,23.10
2018-05-26T09:48:18.512Z,23.20
2018-05-26T09:50:46.096Z,23.40
2018-05-26T09:53:14.516Z,23.50
2018-05-26T09:55:42.097Z,23.40
2018-05-26T09:58:09.767Z,23.50
2018-05-26T10:00:37.349Z,23.50
2018-05-26T10:03:04.977Z,23.50
2018-05-26T10:05:32.562Z,23.70
2018-05-26T10:08:00.220Z,23.90
2018-05-26T10:10:27.853Z,24.00
2018-05-26T10:12:55.467Z,24.00
2018-05-26T10:15:23.927Z,24.10
2018-05-26T10:17:51.532Z,24.00
2018-05-26T10:20:19.880Z,24.40
2018-05-26T10:22:47.505Z,24.40
2018-05-26T10:25:15.132Z,24.60
2018-05-26T10:27:42.753Z,24.60
2018-05-26T10:30:10.436Z,24.50
2018-05-26T10:32:38.823Z,24.80
2018-05-26T10:35:07.174Z,24.80
2018-05-26T10:37:34.805Z,24.80
2018-05-26T10:40:02.388Z,24.90
2018-05-26T10:42:30.012Z,25.10
2018-05-26T10:44:57.873Z,25.10
2018-05-26T10:47:25.460Z,25.30
2018-05-26T10:49:53.883Z,25.60
2018-05-26T10:52:22.284Z,25.60
2018-05-26T10:54:50.026Z,25.60
2018-05-26T10:57:18.425Z,25.70
2018-05-26T10:59:46.057Z,25.70
2018-05-26T11:02:13.686Z,25.70
2018-05-26T11:04:41.330Z,25.70
2018-05-26T11:07:08.928Z,25.70
2018-05-26T11:09:36.579Z,25.80
2018-05-26T11:12:04.192Z,25.80
2018-05-26T11:14:31.840Z,25.90
2018-05-26T11:17:00.193Z,26.40
2018-05-26T11:19:27.825Z,26.40
2018-05-26T11:21:55.465Z,26.50
2018-05-26T11:24:23.072Z,26.60
2018-05-26T11:26:50.709Z,26.70
2018-05-26T11:29:18.296Z,26.70
2018-05-26T11:31:51.932Z,26.50
2018-05-26T11:34:19.525Z,26.50
2018-05-26T11:36:47.146Z,26.80
2018-05-26T11:39:14.776Z,27.00
2018-05-26T11:41:42.368Z,27.10
2018-05-26T11:44:10.748Z,27.40
2018-05-26T11:46:39.188Z,27.30
2018-05-26T11:49:06.785Z,27.30
2018-05-26T11:51:35.188Z,27.30
2018-05-26T11:54:02.818Z,27.30
2018-05-26T11:56:31.220Z,27.60
2018-05-26T11:58:58.809Z,27.60
2018-05-26T12:01:26.433Z,27.70
2018-05-26T12:03:54.044Z,27.80
2018-05-26T12:06:21.661Z,28.00
2018-05-26T12:08:49.289Z,28.10
2018-05-26T12:11:16.884Z,28.30
2018-05-26T12:13:44.509Z,28.30
2018-05-26T12:16:12.133Z,28.50
2018-05-26T12:18:39.720Z,28.40
2018-05-26T12:21:07.353Z,28.40
2018-05-26T12:23:34.936Z,28.60
2018-05-26T12:26:02.576Z,28.70
2018-05-26T12:28:30.175Z,28.60
2018-05-26T12:30:58.590Z,28.40
2018-05-26T12:33:26.197Z,28.40
2018-05-26T12:35:53.824Z,28.50
2018-05-26T12:38:21.452Z,28.70
2018-05-26T12:40:49.860Z,28.90
2018-05-26T12:43:17.492Z,28.90
2018-05-26T12:45:45.958Z,28.90
2018-05-26T12:48:13.652Z,28.90
2018-05-26T12:50:41.252Z,28.90
2018-05-26T12:53:09.726Z,29.20
2018-05-26T12:55:37.309Z,29.10
2018-05-26T12:58:04.898Z,29.30
2018-05-26T13:00:33.305Z,29.10
2018-05-26T13:03:00.933Z,29.00
2018-05-26T13:05:29.389Z,28.70
2018-05-26T13:07:57.026Z,28.80
2018-05-26T13:10:24.668Z,28.60
2018-05-26T13:12:52.333Z,28.50
2018-05-26T13:15:19.928Z,28.20
2018-05-26T13:17:47.559Z,28.20
2018-05-26T13:20:15.144Z,28.00
2018-05-26T13:22:42.769Z,27.90
2018-05-26T13:25:10.368Z,28.10
2018-05-26T13:27:37.995Z,28.40
2018-05-26T13:30:05.673Z,28.50
2018-05-26T13:32:33.300Z,28.70
2018-05-26T13:35:01.656Z,29.30
2018-05-26T13:37:29.309Z,29.20
2018-05-26T13:39:56.959Z,29.40
2018-05-26T13:42:24.597Z,29.50
2018-05-26T13:44:52.184Z,29.10
2018-05-26T13:47:19.813Z,29.20
2018-05-26T13:49:47.400Z,29.30
2018-05-26T13:52:15.013Z,29.50
2018-05-26T13:54:42.644Z,29.50
2018-05-26T13:57:10.244Z,29.50
2018-05-26T13:59:37.877Z,29.60
2018-05-26T14:02:06.256Z,30.00
2018-05-26T14:04:34.668Z,30.10
2018-05-26T14:07:02.253Z,30.00
2018-05-26T14:09:29.884Z,30.20
2018-05-26T14:11:57.469Z,30.20
2018-05-26T14:14:25.126Z,30.30
2018-05-26T14:16:52.707Z,30.30
2018-05-26T14:19:20.336Z,30.40
2018-05-26T14:21:47.956Z,30.40
2018-05-26T14:24:16.304Z,30.20
2018-05-26T14:26:43.928Z,30.20
2018-05-26T14:29:11.514Z,30.40
2018-05-26T14:31:39.140Z,30.50
2018-05-26T14:34:06.832Z,30.50
2018-05-26T14:36:34.416Z,30.70
2018-05-26T14:39:02.046Z,30.80
2018-05-26T14:41:29.657Z,30.80
2018-05-26T14:43:58.070Z,30.50
2018-05-26T14:46:25.697Z,30.50
2018-05-26T14:48:54.056Z,30.60
2018-05-26T14:51:21.758Z,30.60
2018-05-26T14:53:49.376Z,30.70
2018-05-26T14:56:16.965Z,30.80
2018-05-26T14:58:45.377Z,30.60
2018-05-26T15:01:12.976Z,30.50
2018-05-26T15:03:40.568Z,30.50
2018-05-26T15:06:08.962Z,30.20
2018-05-26T15:08:36.548Z,30.20
2018-05-26T15:11:04.182Z,30.20
2018-05-26T15:13:31.819Z,30.40
2018-05-26T15:16:00.176Z,30.70
2018-05-26T15:18:27.810Z,30.70
2018-05-26T15:20:55.460Z,30.60
2018-05-26T15:23:23.111Z,30.60
2018-05-26T15:25:50.733Z,30.60
2018-05-26T15:28:18.360Z,30.60
2018-05-26T15:30:46.001Z,30.80
2018-05-26T15:33:13.600Z,30.60
2018-05-26T15:35:41.191Z,30.60
2018-05-26T15:38:09.597Z,30.40
2018-05-26T15:40:37.189Z,30.40
2018-05-26T15:43:04.845Z,30.20
2018-05-26T15:45:32.453Z,30.10
2018-05-26T15:48:00.807Z,30.00
2018-05-26T15:50:28.488Z,30.00
2018-05-26T15:52:56.845Z,30.10
2018-05-26T15:55:24.433Z,30.00
2018-05-26T15:57:52.829Z,30.10
2018-05-26T16:00:20.421Z,30.10
2018-05-26T16:02:48.075Z,30.10
2018-05-26T16:05:15.701Z,30.20
2018-05-26T16:07:43.303Z,29.90
2018-05-26T16:10:10.929Z,29.50
2018-05-26T16:12:38.515Z,29.30
2018-05-26T16:15:06.148Z,29.20
2018-05-26T16:17:33.740Z,29.30
2018-05-26T16:20:01.365Z,29.40
2018-05-26T16:22:29.781Z,29.30
2018-05-26T16:24:57.404Z,29.30
2018-05-26T16:27:25.796Z,29.40
2018-05-26T16:29:53.381Z,29.40
2018-05-26T16:32:21.001Z,29.50
2018-05-26T16:34:49.396Z,29.40
2018-05-26T16:37:16.985Z,29.40
2018-05-26T16:39:44.612Z,29.30
2018-05-26T16:42:12.260Z,29.20
2018-05-26T16:44:40.614Z,29.00
2018-05-26T16:47:08.249Z,28.90
2018-05-26T16:49:35.876Z,29.00
2018-05-26T16:52:03.504Z,29.00
2018-05-26T16:54:31.093Z,29.10
2018-05-26T16:56:58.728Z,29.10
2018-05-26T16:59:27.136Z,29.10
2018-05-26T17:01:54.727Z,29.10
2018-05-26T17:04:22.352Z,29.20
2018-05-26T17:06:50.881Z,29.30
2018-05-26T17:09:18.519Z,29.30
2018-05-26T17:11:46.144Z,29.30
2018-05-26T17:14:14.537Z,29.20
2018-05-26T17:16:42.168Z,29.20
2018-05-26T17:19:09.761Z,29.10
2018-05-26T17:21:37.390Z,29.00
2018-05-26T17:24:05.168Z,28.90
2018-05-26T17:26:33.576Z,28.90
2018-05-26T17:29:01.163Z,28.90
2018-05-26T17:31:28.792Z,28.90
2018-05-26T17:33:56.416Z,28.80
2018-05-26T17:36:24.042Z,28.70
2018-05-26T17:38:51.667Z,28.60
2018-05-26T17:41:19.261Z,28.40
2018-05-26T17:43:46.921Z,28.20
2018-05-26T17:46:14.562Z,28.00
2018-05-26T17:48:42.168Z,27.90
2018-05-26T17:51:09.805Z,27.80
2018-05-26T17:53:37.393Z,27.70
2018-05-26T17:56:05.029Z,27.60
2018-05-26T17:58:32.669Z,27.50
2018-05-26T18:01:00.256Z,27.40
2018-05-26T18:03:27.888Z,27.30
2018-05-26T18:05:55.529Z,27.10
2018-05-26T18:08:23.910Z,26.90
2018-05-26T18:10:51.505Z,26.90
2018-05-26T18:13:19.132Z,26.70
2018-05-26T18:15:47.485Z,26.10
2018-05-26T18:18:15.120Z,26.10
2018-05-26T18:20:42.716Z,26.00
2018-05-26T18:23:10.313Z,25.90
2018-05-26T18:25:37.937Z,25.80
2018-05-26T18:28:06.336Z,25.60
2018-05-26T18:30:35.529Z,25.50
2018-05-26T18:33:04.000Z,25.30
2018-05-26T18:35:32.403Z,25.10
2018-05-26T18:38:00.028Z,25.10
2018-05-26T18:40:27.953Z,25.10
2018-05-26T18:42:55.605Z,24.80
2018-05-26T18:45:23.297Z,24.60
2018-05-26T18:47:50.909Z,24.50
2018-05-26T18:50:19.329Z,24.20
2018-05-26T18:52:46.916Z,24.20
2018-05-26T18:55:14.545Z,24.20
2018-05-26T18:57:42.129Z,24.10
2018-05-26T19:00:09.767Z,24.10
2018-05-26T19:02:37.427Z,24.10
2018-05-26T19:05:05.804Z,24.00
2018-05-26T19:07:33.439Z,23.90
2018-05-26T19:10:02.257Z,23.80
2018-05-26T19:12:29.941Z,23.70
2018-05-26T19:14:57.529Z,23.70
2018-05-26T19:17:25.930Z,23.60
2018-05-26T19:19:53.569Z,23.50
2018-05-26T19:22:21.929Z,23.30
2018-05-26T19:24:49.556Z,23.30
2018-05-26T19:27:17.935Z,23.20
2018-05-26T19:29:45.669Z,23.10
2018-05-26T19:32:13.331Z,23.10
2018-05-26T19:34:41.009Z,23.00
2018-05-26T19:37:08.658Z,22.90
2018-05-26T19:39:36.269Z,22.80
2018-05-26T19:42:03.884Z,22.70
2018-05-26T19:44:31.537Z,22.70
2018-05-26T19:46:59.122Z,22.60
2018-05-26T19:49:27.400Z,22.50
2018-05-26T19:51:55.170Z,22.30
2018-05-26T19:54:23.828Z,22.30
2018-05-26T19:56:51.425Z,22.20
2018-05-26T19:59:19.280Z,22.10
2018-05-26T20:01:47.546Z,22.00
2018-05-26T20:04:15.965Z,22.00
2018-05-26T20:06:43.562Z,21.90
2018-05-26T20:09:11.207Z,21.90
2018-05-26T20:11:39.613Z,21.90
2018-05-26T20:14:07.216Z,21.90
2018-05-26T20:16:34.859Z,21.80
2018-05-26T20:19:02.451Z,21.70
2018-05-26T20:21:30.121Z,21.50
2018-05-26T20:23:57.754Z,21.40
2018-05-26T20:26:25.346Z,21.30
2018-05-26T20:28:52.971Z,21.30
2018-05-26T20:31:20.565Z,21.30
2018-05-26T20:33:48.978Z,21.30
2018-05-26T20:36:16.561Z,21.20
2018-05-26T20:38:44.192Z,21.30
2018-05-26T20:41:11.813Z,21.30
2018-05-26T20:43:39.488Z,21.20
2018-05-26T20:46:07.132Z,21.20
2018-05-26T20:48:34.733Z,21.20
2018-05-26T20:51:03.346Z,21.10
2018-05-26T20:53:31.038Z,21.10
2018-05-26T20:55:58.633Z,21.10
2018-05-26T20:58:27.041Z,20.70
2018-05-26T21:00:55.465Z,20.70
2018-05-26T21:03:23.117Z,20.70
2018-05-26T21:05:50.757Z,20.60
2018-05-26T21:08:18.364Z,20.60
2018-05-26T21:10:46.768Z,20.60
2018-05-26T21:13:14.398Z,20.50
2018-05-26T21:15:42.050Z,20.50
2018-05-26T21:18:09.647Z,20.40
2018-05-26T21:20:37.287Z,20.40
2018-05-26T21:23:05.648Z,20.30
2018-05-26T21:25:34.063Z,20.30
2018-05-26T21:28:01.655Z,20.30
2018-05-26T21:30:29.329Z,20.30
2018-05-26T21:32:57.050Z,20.30
2018-05-26T21:35:24.680Z,20.20
2018-05-26T21:37:52.338Z,20.20
2018-05-26T21:40:19.974Z,20.10
2018-05-26T21:42:47.561Z,20.10
2018-05-26T21:45:15.198Z,20.00
2018-05-26T21:47:42.796Z,20.00
2018-05-26T21:50:11.213Z,19.80
2018-05-26T21:52:38.845Z,19.80
2018-05-26T21:55:07.205Z,19.60
2018-05-26T21:57:34.852Z,19.60
2018-05-26T22:00:02.505Z,19.60
2018-05-26T22:02:30.140Z,19.60
2018-05-26T22:04:57.773Z,19.60
2018-05-26T22:07:26.197Z,19.50
2018-05-26T22:09:53.825Z,19.50
2018-05-26T22:12:22.573Z,19.50
2018-05-26T22:14:50.513Z,19.40
2018-05-26T22:17:18.104Z,19.40
2018-05-26T22:19:45.744Z,19.30
2018-05-26T22:22:13.368Z,19.10
2018-05-26T22:24:40.989Z,18.80
2018-05-26T22:27:08.612Z,18.60
2018-05-26T22:29:36.200Z,18.50
2018-05-26T22:32:03.830Z,18.60
2018-05-26T22:34:31.524Z,18.60
2018-05-26T22:36:59.114Z,18.70
2018-05-26T22:39:27.516Z,18.80
2018-05-26T22:41:55.141Z,18.80
2018-05-26T22:44:22.764Z,18.90
2018-05-26T22:46:50.413Z,18.90
2018-05-26T22:49:18.015Z,18.90
2018-05-26T22:51:45.653Z,19.00
2018-05-26T22:54:13.255Z,19.00
2018-05-26T22:56:41.645Z,19.00
2018-05-26T22:59:09.268Z,18.90
2018-05-26T23:01:36.860Z,18.90
2018-05-26T23:04:05.240Z,18.70
2018-05-26T23:06:33.588Z,18.60
2018-05-26T23:09:01.231Z,18.60
2018-05-26T23:11:29.360Z,18.60
2018-05-26T23:13:56.960Z,18.60
2018-05-26T23:16:28.106Z,18.60
2018-05-26T23:18:55.924Z,18.60
2018-05-26T23:21:24.328Z,18.50
2018-05-26T23:23:53.682Z,18.50
2018-05-26T23:26:21.317Z,18.50
2018-05-26T23:28:48.900Z,18.40
2018-05-26T23:31:16.488Z,18.30
2018-05-26T23:33:44.884Z,18.30
2018-05-26T23:36:12.469Z,18.30
2018-05-26T23:38:40.106Z,18.30
2018-05-26T23:41:07.693Z,18.30
2018-05-26T23:43:35.280Z,18.30
2018-05-26T23:46:02.904Z,18.40
2018-05-26T23:48:30.583Z,18.30
2018-05-26T23:50:58.148Z,18.20
2018-05-26T23:53:25.785Z,18.10
2018-05-26T23:55:53.448Z,18.10
2018-05-26T23:58:21.105Z,18.10
